Bighorn, MT (59010)

2:59 PM MDT on May 25, 2017 (GMT -0600)
Billings Logan International | | Change Station

Elev 3648 ft 45.81 °N, 108.54 °W | Updated 6 minutes ago

Overcast
Overcast
61 °F
Feels Like 61 °F
N
22
Wind Variable Wind from NNW
Gusts 32 mph

Today
High -- | Low -- °F
--% Chance of Precip.
Yesterday
High -- | Low -- °F
Precip. -- in
Pressure 29.68 in
Visibility 10.0 miles
Clouds Mostly Cloudy 7000 ft
Mostly Cloudy 11000 ft
Dew Point 32 °F
Humidity 34%
Rainfall 0.00 in
Snow Depth Not available.
5:26 AM 8:47 PM
New Moon, 0% visible
METAR KBIL 252053Z 33019G28KT 10SM BKN070 BKN110 16/00 A2971 RMK AO2 PK WND 32028/2045 SLP050 SHRA DSNT E-S W 60000 T01610000 51018
Pressure 29.68 in
Visibility 10.0 miles
Clouds Mostly Cloudy 7000 ft
Mostly Cloudy 11000 ft
Dew Point 32 °F
Humidity 34%
Rainfall 0.00 in
Snow Depth Not available.
5:26 AM 8:47 PM
New Moon, 0% visible
METAR KBIL 252053Z 33019G28KT 10SM BKN070 BKN110 16/00 A2971 RMK AO2 PK WND 32028/2045 SLP050 SHRA DSNT E-S W 60000 T01610000 51018

Get Severe Weather Alerts

Thanks for signing up!

Be on the lookout for a verification email in your inbox.

You'll start receiving the daily forecast at 6 AM.

×

10-Day Weather Forecast

Almanac

Astronomy

May. 25, 2017 Rise Set
Actual Time
Civil Twilight
Nautical Twilight
Astronomical Twilight
Moon
Length of Visible Light
Length of Day
Tomorrow will be .
, % of the Moon is Illuminated

Today's Extremes

State Highs State Lows

Community

WunderPhotos

Category 6

Welcome to Category 6. This is the collective home for Weather Underground's featured writeups by Dr. Jeff Masters (right), Bob Henson (left), Chris Burt, and other regular contributors.

Nearby

Air Quality

  Air Quality AQ Index Pollutant
Not available.

Snow Depth

Station Depth Elevation

Earthquake Activity

City Distance Mag. Time & Date
Minimum magnitude displayed is 2.5.

Coastal Water Temperatures

Place Temperature

Stations

Nearby Weather Stations

Station Location Temp. Windchill Dew Point Humidity Wind Precip. Elev Updated Type
                   

Watches & Warnings

There are currently no watches in effect.